Time;durP1;ratioP1;P1;durP2;ratioP2;P2;SDS_P1;SDS_P2;PMS_P1;PMS_P2;Temp;Humidity;BMP_temperature;BMP_pressure;BME280_temperature;BME280_humidity;BME280_pressure;Samples;Min_cycle;Max_cycle;Signal;HPM_P1;HPM_P2
2021/04/04 00:00:55;;;;;;;0.20;0.20;;;;;;;3.82;49.28;97152.81;5135792;27;20031;-59
2021/04/04 00:03:20;;;;;;;0.20;0.20;;;;;;;3.81;49.26;97153.06;5135626;27;20523;-59
2021/04/04 00:05:46;;;;;;;0.10;0.10;;;;;;;3.80;49.28;97154.16;5135770;27;20495;-59
2021/04/04 00:08:12;;;;;;;0.30;0.30;;;;;;;3.81;49.45;97143.06;5136074;27;20469;-59
2021/04/04 00:10:37;;;;;;;0.10;0.10;;;;;;;3.83;49.47;97150.97;5117035;27;20093;-60
2021/04/04 00:13:04;;;;;;;0.20;0.20;;;;;;;3.84;49.50;97145.28;5135362;27;20447;-60
2021/04/04 00:15:30;;;;;;;0.20;0.20;;;;;;;3.84;49.43;97147.16;5135847;27;20139;-59
2021/04/04 00:17:55;;;;;;;0.20;0.20;;;;;;;3.81;49.44;97148.47;5135321;27;20475;-59
2021/04/04 00:20:21;;;;;;;0.15;0.15;;;;;;;3.77;49.77;97143.72;5135474;27;20104;-60
2021/04/04 00:22:47;;;;;;;0.20;0.20;;;;;;;3.74;49.89;97146.91;5135395;27;20038;-59
2021/04/04 00:25:15;;;;;;;0.10;0.10;;;;;;;3.72;49.88;97143.59;5116560;27;20058;-59
2021/04/04 00:27:41;;;;;;;0.20;0.20;;;;;;;3.70;49.97;97141.13;5134367;27;20023;-59
2021/04/04 00:30:12;;;;;;;0.20;0.20;;;;;;;3.73;50.08;97139.84;5135069;27;20106;-59
2021/04/04 00:32:38;;;;;;;0.20;0.20;;;;;;;3.71;49.98;97148.22;5116695;27;20076;-59
2021/04/04 00:35:10;;;;;;;0.20;0.20;;;;;;;3.67;50.21;97136.16;5135630;27;20472;-59
2021/04/04 00:37:37;;;;;;;0.28;0.28;;;;;;;3.63;50.35;97135.78;5135495;27;20038;-59
2021/04/04 00:40:15;;;;;;;0.20;0.20;;;;;;;3.61;50.52;97147.94;5134910;27;20023;-59
2021/04/04 00:42:40;;;;;;;0.20;0.20;;;;;;;3.56;50.52;97131.50;5135345;27;20511;-59
2021/04/04 00:45:12;;;;;;;0.20;0.20;;;;;;;3.58;50.73;97129.38;5116720;27;20031;-59
2021/04/04 00:47:38;;;;;;;0.20;0.20;;;;;;;3.60;50.48;97124.56;5116189;27;20023;-60
2021/04/04 00:50:06;;;;;;;0.20;0.20;;;;;;;3.60;50.64;97124.56;5134615;27;20453;-58
2021/04/04 00:52:32;;;;;;;0.20;0.20;;;;;;;3.55;50.74;97122.56;5134572;27;20035;-59
2021/04/04 00:54:58;;;;;;;0.17;0.17;;;;;;;3.51;50.92;97115.94;5099081;27;20430;-59
2021/04/04 00:57:24;;;;;;;0.20;0.20;;;;;;;3.48;50.91;97122.63;5115854;27;20047;-58
2021/04/04 00:59:51;;;;;;;0.20;0.20;;;;;;;3.43;51.01;97114.38;5134494;27;20488;-58
2021/04/04 01:02:17;;;;;;;0.73;0.73;;;;;;;3.36;51.12;97118.22;5134303;27;20037;-58
2021/04/04 01:04:45;;;;;;;0.25;0.25;;;;;;;3.28;51.31;97109.38;5115969;27;20515;-59
2021/04/04 01:07:11;;;;;;;0.20;0.20;;;;;;;3.23;51.54;97120.06;5134048;27;20080;-59
2021/04/04 01:09:37;;;;;;;0.20;0.20;;;;;;;3.19;51.60;97104.50;5134629;27;20027;-59
2021/04/04 01:12:17;;;;;;;0.20;0.20;;;;;;;3.16;51.88;97108.47;5134652;27;20023;-59
2021/04/04 01:14:56;;;;;;;0.20;0.20;;;;;;;3.13;51.80;97115.19;5134443;27;20031;-59
2021/04/04 01:17:22;;;;;;;0.20;0.20;;;;;;;3.11;51.67;97114.59;5116175;27;20508;-59
2021/04/04 01:19:51;;;;;;;0.20;0.20;;;;;;;3.08;51.93;97112.34;5134092;27;20039;-59
2021/04/04 01:22:46;;;;;;;0.20;0.20;;;;;;;3.05;52.07;97101.97;5134190;27;20034;-60
2021/04/04 01:25:27;;;;;;;0.63;0.63;;;;;;;3.00;51.93;97099.09;5115884;27;20043;-60
2021/04/04 01:27:58;;;;;;;0.20;0.20;;;;;;;2.97;52.13;97099.56;5134244;27;20504;-59
2021/04/04 01:30:30;;;;;;;0.20;0.20;;;;;;;2.98;51.96;97087.66;5134168;27;20031;-59
2021/04/04 01:32:58;;;;;;;0.20;0.20;;;;;;;3.01;51.98;97089.91;5134062;27;20039;-59
2021/04/04 01:35:28;;;;;;;0.20;0.20;;;;;;;3.02;52.10;97090.72;5133967;27;20438;-59
2021/04/04 01:37:59;;;;;;;0.20;0.20;;;;;;;3.04;52.00;97089.44;5133408;27;20190;-59
2021/04/04 01:40:26;;;;;;;0.20;0.20;;;;;;;3.06;52.03;97092.78;5134007;27;20165;-58
2021/04/04 01:42:55;;;;;;;0.20;0.20;;;;;;;3.10;51.92;97087.72;5133811;27;20035;-59
2021/04/04 01:45:25;;;;;;;0.20;0.20;;;;;;;3.13;52.02;97088.06;5115951;27;20491;-59
2021/04/04 01:47:52;;;;;;;0.30;0.30;;;;;;;3.15;51.63;97088.69;5133584;27;20042;-58
2021/04/04 01:50:19;;;;;;;0.20;0.20;;;;;;;3.15;52.03;97088.69;5134042;27;20052;-59
2021/04/04 01:52:47;;;;;;;0.20;0.20;;;;;;;3.13;52.16;97085.34;5133680;27;20042;-59
2021/04/04 01:55:13;;;;;;;0.20;0.20;;;;;;;3.15;51.99;97085.13;5133759;27;20463;-59
2021/04/04 01:57:41;;;;;;;0.20;0.20;;;;;;;3.16;52.24;97081.38;5133311;27;20138;-60
2021/04/04 02:00:13;;;;;;;0.20;0.20;;;;;;;3.20;52.29;97081.75;5134088;27;20023;-60
2021/04/04 02:02:40;;;;;;;0.25;0.25;;;;;;;3.22;52.21;97080.44;5115019;28;20171;-59
2021/04/04 02:05:08;;;;;;;0.20;0.20;;;;;;;3.25;52.26;97081.88;5133185;28;20108;-59
2021/04/04 02:07:38;;;;;;;0.43;0.40;;;;;;;3.25;52.27;97079.16;5133466;28;20027;-59
2021/04/04 02:10:26;;;;;;;0.20;0.20;;;;;;;3.28;52.21;97086.81;5115438;28;20051;-59
2021/04/04 02:12:54;;;;;;;0.20;0.20;;;;;;;3.33;52.17;97086.97;5132456;28;20158;-59
2021/04/04 02:15:22;;;;;;;0.20;0.20;;;;;;;3.38;52.21;97089.81;5133622;28;20027;-58
2021/04/04 02:17:48;;;;;;;0.30;0.30;;;;;;;3.41;51.89;97088.53;5133224;28;20023;-59
2021/04/04 02:20:21;;;;;;;0.20;0.20;;;;;;;3.45;52.24;97081.59;5133481;28;20426;-59
2021/04/04 02:22:48;;;;;;;0.55;0.55;;;;;;;3.46;52.08;97083.22;5133143;28;20050;-59
2021/04/04 02:25:16;;;;;;;0.20;0.20;;;;;;;3.49;52.11;97089.03;5133873;28;20031;-59
2021/04/04 02:27:46;;;;;;;0.20;0.20;;;;;;;3.52;52.06;97087.75;5132892;28;20027;-60
2021/04/04 02:30:18;;;;;;;0.20;0.20;;;;;;;3.56;52.12;97085.38;5132783;28;20031;-59
2021/04/04 02:32:53;;;;;;;0.40;0.40;;;;;;;3.55;52.22;97086.44;5133280;28;20035;-60
2021/04/04 02:35:28;;;;;;;0.20;0.20;;;;;;;3.56;52.26;97082.66;5133146;28;20035;-60
2021/04/04 02:37:56;;;;;;;0.20;0.20;;;;;;;3.63;52.32;97086.09;5133380;28;20035;-58
2021/04/04 02:40:24;;;;;;;0.20;0.20;;;;;;;3.67;52.17;97081.88;5133113;28;20042;-60
2021/04/04 02:42:51;;;;;;;0.20;0.20;;;;;;;3.71;52.21;97080.34;5133215;28;20027;-60
2021/04/04 02:45:19;;;;;;;0.40;0.40;;;;;;;3.75;52.12;97076.09;5114560;28;20019;-61
2021/04/04 02:48:06;;;;;;;0.20;0.20;;;;;;;3.83;52.18;97070.31;5097903;28;20459;-60
2021/04/04 02:50:35;;;;;;;0.20;0.20;;;;;;;3.90;51.92;97080.25;5135351;27;20038;-59
2021/04/04 02:53:02;;;;;;;0.20;0.20;;;;;;;3.96;51.76;97068.44;5137114;27;20042;-61
2021/04/04 02:55:30;;;;;;;0.20;0.20;;;;;;;4.03;52.01;97074.59;5136736;27;20035;-60
2021/04/04 02:57:58;;;;;;;0.10;0.10;;;;;;;4.08;52.13;97072.00;5118069;27;20047;-59
2021/04/04 03:00:24;;;;;;;0.20;0.20;;;;;;;4.12;51.85;97075.91;5136485;27;20035;-61
2021/04/04 03:02:55;;;;;;;0.20;0.20;;;;;;;4.13;52.08;97069.38;5118389;27;20035;-59
2021/04/04 03:05:26;;;;;;;0.20;0.20;;;;;;;4.13;52.05;97058.53;5136611;27;20035;-61
2021/04/04 03:07:54;;;;;;;0.20;0.20;;;;;;;4.12;52.28;97062.31;5136265;27;20031;-60
2021/04/04 03:10:20;;;;;;;0.20;0.20;;;;;;;4.15;52.22;97066.44;5117823;27;20038;-59
2021/04/04 03:12:49;;;;;;;0.20;0.20;;;;;;;4.23;51.95;97054.41;5136783;27;20472;-61
2021/04/04 03:15:16;;;;;;;0.20;0.20;;;;;;;4.28;52.07;97055.31;5136547;27;20180;-59
2021/04/04 03:17:44;;;;;;;0.20;0.20;;;;;;;4.37;51.98;97059.34;5136478;27;20114;-59
2021/04/04 03:20:11;;;;;;;0.28;0.28;;;;;;;4.52;51.58;97050.69;5133103;27;20080;-50
2021/04/04 03:22:40;;;;;;;0.30;0.30;;;;;;;4.69;51.35;97053.47;5134545;27;20039;-53
2021/04/04 03:25:08;;;;;;;0.20;0.20;;;;;;;4.84;51.10;97041.28;5135648;27;20544;-52
2021/04/04 03:27:37;;;;;;;0.20;0.20;;;;;;;4.94;51.01;97046.91;5136462;27;20076;-57
2021/04/04 03:30:07;;;;;;;0.20;0.20;;;;;;;5.02;50.94;97034.81;5117772;27;20050;-48
2021/04/04 03:32:37;;;;;;;0.20;0.20;;;;;;;5.09;51.00;97027.34;5136319;27;20049;-59
2021/04/04 03:35:06;;;;;;;0.20;0.20;;;;;;;5.15;51.02;97037.22;5136285;27;20031;-50
2021/04/04 03:37:33;;;;;;;0.20;0.20;;;;;;;5.24;50.94;97030.34;5120183;27;20500;-64
2021/04/04 03:39:58;;;;;;;0.20;0.20;;;;;;;5.36;50.80;97027.56;5114476;28;20492;-60
2021/04/04 03:42:28;;;;;;;0.20;0.20;;;;;;;5.43;50.94;97030.13;5115225;28;20038;-61
2021/04/04 03:44:58;;;;;;;0.20;0.20;;;;;;;5.49;50.73;97025.59;5114604;28;20122;-60
2021/04/04 03:47:23;;;;;;;0.10;0.10;;;;;;;5.48;51.00;97030.22;5114664;28;20040;-59
2021/04/04 03:49:50;;;;;;;0.30;0.30;;;;;;;5.44;51.20;97035.31;5114907;28;20123;-58
2021/04/04 03:52:18;;;;;;;0.25;0.25;;;;;;;5.42;51.16;97032.03;5123865;27;20511;-60
2021/04/04 03:54:45;;;;;;;0.20;0.20;;;;;;;5.39;51.50;97031.69;5135313;27;20075;-60
2021/04/04 03:57:14;;;;;;;0.20;0.20;;;;;;;5.36;51.68;97032.16;5135075;27;20047;-64
2021/04/04 03:59:40;;;;;;;0.73;0.73;;;;;;;5.32;51.92;97020.97;5135283;27;20030;-61
2021/04/04 04:02:07;;;;;;;0.35;0.35;;;;;;;5.28;51.96;97016.25;5135002;27;20031;-56
2021/04/04 04:04:34;;;;;;;0.10;0.10;;;;;;;5.25;52.09;97021.09;5116849;27;20031;-60
2021/04/04 04:07:01;;;;;;;0.20;0.20;;;;;;;5.20;52.07;97018.31;5116607;27;20050;-56
2021/04/04 04:09:27;;;;;;;0.20;0.20;;;;;;;5.28;51.98;97018.97;5135201;27;20112;-59
2021/04/04 04:11:54;;;;;;;0.30;0.30;;;;;;;5.36;52.05;97029.44;5134874;27;20033;-60
2021/04/04 04:14:22;;;;;;;0.20;0.20;;;;;;;5.38;51.86;97021.88;5116956;27;20106;-56
2021/04/04 04:16:48;;;;;;;0.20;0.20;;;;;;;5.43;51.83;97027.41;5134757;27;20055;-59
2021/04/04 04:19:16;;;;;;;0.45;0.35;;;;;;;5.45;51.93;97025.28;5134874;27;20072;-62
2021/04/04 04:21:42;;;;;;;0.20;0.20;;;;;;;5.43;51.93;97021.94;5134667;27;20397;-53
2021/04/04 04:24:14;;;;;;;0.63;0.57;;;;;;;5.48;51.94;97022.06;5134842;27;20034;-61
2021/04/04 04:26:43;;;;;;;0.20;0.20;;;;;;;5.51;51.94;97018.84;5134859;27;20027;-55
2021/04/04 04:29:12;;;;;;;0.20;0.20;;;;;;;5.61;51.65;97019.00;5116414;27;20127;-56
2021/04/04 04:31:51;;;;;;;0.20;0.20;;;;;;;5.84;51.30;97024.53;5134485;27;20027;-58
2021/04/04 04:34:19;;;;;;;0.35;0.35;;;;;;;6.11;50.65;97019.25;5134394;27;20081;-61
2021/04/04 04:36:46;;;;;;;0.30;0.30;;;;;;;6.35;50.30;97024.50;5125554;27;20055;-56
2021/04/04 04:39:13;;;;;;;0.20;0.20;;;;;;;6.51;50.03;97020.91;5112174;28;20032;-62
2021/04/04 04:41:44;;;;;;;2.90;1.17;;;;;;;6.55;50.09;97016.59;5109885;28;20039;-61
2021/04/04 04:44:15;;;;;;;0.20;0.20;;;;;;;6.64;50.04;97014.22;5112508;28;20374;-62
2021/04/04 04:46:43;;;;;;;1.38;0.77;;;;;;;6.75;49.93;97026.09;5091714;28;20047;-62
2021/04/04 04:49:09;;;;;;;0.30;0.30;;;;;;;6.88;49.79;97017.53;5112295;28;20031;-63
2021/04/04 04:51:35;;;;;;;0.30;0.30;;;;;;;6.91;49.86;97027.94;5094036;27;20035;-60
2021/04/04 04:54:03;;;;;;;0.20;0.20;;;;;;;6.81;50.04;97019.63;5093861;28;20027;-60
2021/04/04 04:56:30;;;;;;;0.20;0.20;;;;;;;6.77;50.34;97019.31;5076924;28;20519;-59
2021/04/04 04:59:01;;;;;;;0.20;0.20;;;;;;;6.81;50.34;97014.16;5111885;28;20032;-62
2021/04/04 05:01:36;;;;;;;0.13;0.13;;;;;;;6.86;50.27;97018.84;5111894;28;20038;-59
2021/04/04 05:04:02;;;;;;;;;;;;;;;6.93;50.20;97016.75;5110074;28;20027;-59
2021/04/04 05:06:29;;;;;;;0.20;0.20;;;;;;;6.97;50.08;97021.44;5111658;28;19916;-61
2021/04/04 05:08:58;;;;;;;0.52;0.52;;;;;;;7.03;50.02;97011.41;5111666;28;20036;-63
2021/04/04 05:11:25;;;;;;;0.30;0.30;;;;;;;7.11;50.03;97012.84;5111277;28;20118;-61
2021/04/04 05:13:51;;;;;;;0.20;0.20;;;;;;;7.16;49.95;97015.66;5110466;28;20035;-60
2021/04/04 05:16:17;;;;;;;0.77;0.77;;;;;;;7.21;49.95;97014.88;5111407;28;20015;-60
2021/04/04 05:18:48;;;;;;;0.50;0.50;;;;;;;7.22;50.05;97000.97;5111754;28;20024;-64
2021/04/04 05:21:26;;;;;;;0.20;0.20;;;;;;;7.28;50.00;97002.66;5111911;28;20106;-61
2021/04/04 05:23:56;;;;;;;0.20;0.20;;;;;;;7.37;49.73;96998.38;5111638;28;20061;-61
2021/04/04 05:26:25;;;;;;;0.38;0.38;;;;;;;7.44;49.85;97002.81;5109020;28;20107;-59
2021/04/04 05:28:53;;;;;;;1.75;0.93;;;;;;;7.44;49.70;96998.19;5109750;28;20752;-63
2021/04/04 05:31:20;;;;;;;0.45;0.45;;;;;;;7.47;49.74;96999.56;5107799;28;20035;-65
2021/04/04 05:33:46;;;;;;;0.20;0.20;;;;;;;7.52;49.67;96996.88;5111503;28;20504;-61
2021/04/04 05:36:12;;;;;;;0.35;0.35;;;;;;;7.53;49.62;96995.81;5111423;27;20057;-61
2021/04/04 05:38:38;;;;;;;0.20;0.20;;;;;;;7.50;49.75;96990.84;5093247;28;20047;-59
2021/04/04 05:41:03;;;;;;;0.20;0.20;;;;;;;7.39;49.96;96983.66;5092910;28;20525;-61
2021/04/04 05:43:41;;;;;;;0.20;0.20;;;;;;;7.37;50.08;96992.09;5111274;28;20051;-63
2021/04/04 05:46:39;;;;;;;0.20;0.20;;;;;;;7.45;50.00;96988.06;5082787;28;20396;-58
2021/04/04 05:49:05;;;;;;;0.20;0.20;;;;;;;7.53;49.68;96988.41;5029611;28;20412;-58
2021/04/04 05:51:50;;;;;;;0.75;0.52;;;;;;;7.58;49.70;96987.63;5029989;28;20131;-59
2021/04/04 05:54:55;;;;;;;0.20;0.20;;;;;;;7.70;49.44;96979.28;5029961;28;20045;-60
2021/04/04 05:57:28;;;;;;;0.32;0.30;;;;;;;7.85;49.30;96984.84;5029729;28;20137;-59
2021/04/04 06:00:08;;;;;;;0.20;0.20;;;;;;;7.94;49.02;96977.00;5030284;28;20039;-59
2021/04/04 06:02:53;;;;;;;0.13;0.13;;;;;;;7.97;49.14;96981.94;5029876;28;20053;-64
2021/04/04 06:05:41;;;;;;;0.20;0.20;;;;;;;7.88;49.37;96972.59;5030052;28;20033;-61
2021/04/04 06:08:32;;;;;;;0.50;0.50;;;;;;;7.89;49.34;96969.59;5046006;28;20611;-62
2021/04/04 06:11:33;;;;;;;0.10;0.10;;;;;;;7.99;49.25;96977.00;4990956;28;20412;-59
2021/04/04 06:14:23;;;;;;;0.50;0.50;;;;;;;8.12;49.05;96963.97;4914105;29;20418;-60
2021/04/04 06:16:57;;;;;;;0.20;0.20;;;;;;;8.24;48.79;96959.97;4898214;29;20048;-61
2021/04/04 06:19:32;;;;;;;1.40;0.43;;;;;;;8.40;48.56;96963.56;4913797;29;20091;-61
2021/04/04 06:22:24;;;;;;;0.28;0.28;;;;;;;8.45;48.51;96959.25;4904922;29;20056;-61
2021/04/04 06:25:04;;;;;;;0.20;0.20;;;;;;;8.41;48.70;96957.03;4901500;29;20094;-62
2021/04/04 06:27:51;;;;;;;0.20;0.20;;;;;;;8.37;48.69;96961.38;4916856;29;20072;-62
2021/04/04 06:30:51;;;;;;;0.40;0.40;;;;;;;8.34;48.92;96955.63;4917319;29;20139;-63
2021/04/04 06:33:25;;;;;;;0.20;0.20;;;;;;;8.28;48.85;96952.03;4861080;29;20069;-62
2021/04/04 06:36:04;;;;;;;0.10;0.10;;;;;;;8.16;49.23;96960.44;4879272;29;20140;-61
2021/04/04 06:38:41;;;;;;;0.30;0.30;;;;;;;8.19;49.20;96951.72;4879411;29;20705;-60
2021/04/04 06:41:14;;;;;;;0.15;0.15;;;;;;;8.18;49.04;96949.25;4879729;29;20095;-63
2021/04/04 06:44:01;;;;;;;0.10;0.10;;;;;;;8.09;49.37;96950.84;4879629;29;20045;-61
2021/04/04 06:46:49;;;;;;;0.20;0.20;;;;;;;8.11;49.35;96951.41;4879127;29;20124;-61
2021/04/04 06:49:42;;;;;;;0.10;0.10;;;;;;;8.17;49.15;96944.88;4968837;28;20392;-61
2021/04/04 06:52:35;;;;;;;0.20;0.20;;;;;;;8.14;49.34;96942.66;5001620;28;20531;-61
2021/04/04 06:55:12;;;;;;;0.20;0.20;;;;;;;7.99;49.70;96946.13;5013607;28;20049;-59
2021/04/04 06:58:04;;;;;;;0.10;0.10;;;;;;;7.78;50.07;96937.00;5013317;28;20061;-63
2021/04/04 07:00:59;;;;;;;0.20;0.20;;;;;;;7.66;50.34;96937.19;5013631;28;20030;-64
2021/04/04 07:03:29;;;;;;;0.20;0.20;;;;;;;7.65;50.29;96930.88;5013346;28;20057;-65
2021/04/04 07:06:30;;;;;;;0.20;0.20;;;;;;;7.76;50.11;96933.69;5006196;28;20512;-61
2021/04/04 07:08:55;;;;;;;0.43;0.43;;;;;;;7.86;49.89;96929.13;4994507;28;20042;-59
2021/04/04 07:11:24;;;;;;;0.20;0.20;;;;;;;8.00;49.55;96926.75;5052791;28;20465;-60
2021/04/04 07:14:17;;;;;;;0.20;0.20;;;;;;;8.21;49.17;96921.38;5052866;28;20051;-65
2021/04/04 07:17:21;;;;;;;0.52;0.32;;;;;;;8.38;49.04;96921.19;5052778;28;20045;-64
2021/04/04 07:20:18;;;;;;;0.10;0.10;;;;;;;8.48;49.06;96925.91;5052783;28;20387;-60
2021/04/04 07:23:02;;;;;;;0.38;0.38;;;;;;;8.45;49.20;96915.50;5078715;28;20070;-63
2021/04/04 07:25:36;;;;;;;0.20;0.20;;;;;;;8.46;49.08;96917.16;5093044;28;20036;-63
2021/04/04 07:28:20;;;;;;;0.10;0.10;;;;;;;8.47;49.13;96914.13;5075793;28;20505;-64
2021/04/04 07:31:00;;;;;;;0.10;0.10;;;;;;;8.44;49.28;96911.94;5053723;28;20052;-61
2021/04/04 07:33:49;;;;;;;0.20;0.20;;;;;;;8.37;49.38;96914.88;5054020;28;20028;-61
2021/04/04 07:36:21;;;;;;;0.20;0.20;;;;;;;8.23;49.76;96914.56;5065962;28;20052;-60
2021/04/04 07:39:11;;;;;;;0.10;0.10;;;;;;;8.07;50.25;96921.84;5052203;28;20451;-60
2021/04/04 07:41:48;;;;;;;0.20;0.20;;;;;;;7.94;50.45;96905.13;5069068;28;20044;-60
2021/04/04 07:44:30;;;;;;;0.30;0.30;;;;;;;7.88;50.57;96907.81;5070763;28;20028;-61
2021/04/04 07:47:24;;;;;;;0.20;0.20;;;;;;;7.86;50.52;96900.97;5070507;28;20474;-60
2021/04/04 07:50:20;;;;;;;0.25;0.25;;;;;;;7.90;50.31;96899.34;5072391;28;20028;-60
2021/04/04 07:52:53;;;;;;;0.30;0.30;;;;;;;7.94;50.25;96900.47;5074387;28;20037;-63
2021/04/04 07:55:30;;;;;;;0.22;0.22;;;;;;;7.95;50.16;96896.66;5071160;28;20137;-64
2021/04/04 07:58:17;;;;;;;0.20;0.20;;;;;;;8.01;50.22;96895.59;5099748;28;20043;-63
2021/04/04 08:00:54;;;;;;;0.20;0.20;;;;;;;8.12;50.08;96887.44;5112397;28;20062;-59
2021/04/04 08:03:27;;;;;;;0.20;0.20;;;;;;;8.16;49.89;96885.81;5111446;28;20034;-63
2021/04/04 08:06:01;;;;;;;1.08;0.30;;;;;;;8.16;49.86;96888.56;5110373;28;20035;-60
2021/04/04 08:08:35;;;;;;;0.20;0.20;;;;;;;8.06;50.26;96884.66;5115565;27;20038;-63
2021/04/04 08:11:41;;;;;;;0.10;0.10;;;;;;;7.88;50.60;96885.94;5111253;28;20041;-60
2021/04/04 08:14:13;;;;;;;0.20;0.20;;;;;;;7.71;50.87;96886.16;5112146;28;20031;-59
2021/04/04 08:16:50;;;;;;;0.20;0.20;;;;;;;7.64;51.10;96885.56;5110883;28;20440;-61
2021/04/04 08:19:17;;;;;;;0.20;0.20;;;;;;;7.63;51.11;96889.34;5092182;28;20034;-60
2021/04/04 08:21:54;;;;;;;0.20;0.20;;;;;;;7.52;51.37;96872.09;5114989;27;20023;-60
2021/04/04 08:24:45;;;;;;;0.20;0.20;;;;;;;7.40;51.50;96867.91;5110967;28;20042;-60
2021/04/04 08:27:32;;;;;;;0.20;0.20;;;;;;;7.35;51.63;96874.16;5009590;28;20046;-60
2021/04/04 08:30:11;;;;;;;0.20;0.20;;;;;;;7.32;51.53;96861.84;5008670;28;20173;-60
2021/04/04 08:33:00;;;;;;;0.20;0.20;;;;;;;7.48;51.16;96865.50;5009316;28;20083;-65
2021/04/04 08:35:44;;;;;;;0.47;0.47;;;;;;;7.63;50.97;96858.50;4988585;28;20459;-63
2021/04/04 08:38:23;;;;;;;0.20;0.20;;;;;;;7.75;50.58;96859.09;5008918;28;20072;-60
2021/04/04 08:40:50;;;;;;;0.20;0.20;;;;;;;7.96;50.25;96861.94;5007917;28;20088;-61
2021/04/04 08:43:19;;;;;;;0.20;0.20;;;;;;;8.24;49.73;96860.69;5009563;28;20593;-64
2021/04/04 08:46:25;;;;;;;0.20;0.20;;;;;;;8.58;49.12;96854.81;5009622;28;20096;-60
2021/04/04 08:48:53;;;;;;;0.45;0.45;;;;;;;8.82;48.82;96851.56;4920177;29;20044;-62
2021/04/04 08:51:50;;;;;;;0.20;0.20;;;;;;;8.91;48.83;96839.81;4922507;29;20114;-60
2021/04/04 08:54:19;;;;;;;0.10;0.10;;;;;;;9.07;48.49;96840.66;4910962;29;20095;-60
2021/04/04 08:56:55;;;;;;;0.20;0.20;;;;;;;9.29;48.49;96836.81;4909717;29;20052;-63
2021/04/04 08:59:32;;;;;;;0.20;0.20;;;;;;;9.42;48.17;96830.78;4910085;29;20048;-60
2021/04/04 09:02:05;;;;;;;0.20;0.20;;;;;;;9.37;48.37;96833.50;4910957;29;20039;-61
2021/04/04 09:04:34;;;;;;;0.20;0.20;;;;;;;9.24;48.83;96829.41;4973217;28;20057;-59
2021/04/04 09:07:04;;;;;;;0.15;0.15;;;;;;;9.36;48.68;96831.84;5008946;28;20092;-62
2021/04/04 09:09:39;;;;;;;0.20;0.20;;;;;;;9.44;48.57;96828.56;5008062;28;20037;-60
2021/04/04 09:12:06;;;;;;;0.10;0.10;;;;;;;9.58;48.55;96828.81;5009240;28;20459;-61
2021/04/04 09:14:38;;;;;;;0.10;0.10;;;;;;;9.64;48.31;96824.16;5010181;28;20034;-61
2021/04/04 09:17:09;;;;;;;0.20;0.20;;;;;;;9.66;48.45;96824.69;5010575;28;20113;-62
2021/04/04 09:19:37;;;;;;;0.50;0.50;;;;;;;9.66;48.49;96819.22;5010115;28;20042;-62
2021/04/04 09:22:08;;;;;;;0.50;0.50;;;;;;;9.69;48.46;96823.31;5009360;28;20594;-61
2021/04/04 09:24:49;;;;;;;0.10;0.10;;;;;;;9.62;48.68;96823.63;4998370;28;20124;-63
2021/04/04 09:27:21;;;;;;;0.20;0.20;;;;;;;9.53;48.92;96817.06;5070006;28;20038;-61
2021/04/04 09:29:54;;;;;;;0.35;0.30;;;;;;;9.58;49.00;96804.16;5086163;28;20119;-61
2021/04/04 09:32:38;;;;;;;2.00;0.45;;;;;;;9.70;48.61;96814.84;5087938;28;20152;-62
2021/04/04 09:35:07;;;;;;;0.20;0.20;;;;;;;9.90;48.56;96813.13;5070040;28;20028;-64
2021/04/04 09:37:34;;;;;;;0.10;0.10;;;;;;;10.04;48.08;96808.69;5072733;28;20036;-59
2021/04/04 09:40:01;;;;;;;0.20;0.20;;;;;;;10.10;48.19;96812.19;5088860;28;20421;-60
2021/04/04 09:42:32;;;;;;;0.10;0.10;;;;;;;10.22;48.16;96809.13;5088938;28;20047;-61
2021/04/04 09:45:18;;;;;;;0.20;0.20;;;;;;;10.31;47.75;96819.25;5088978;28;20036;-60
2021/04/04 09:47:46;;;;;;;0.20;0.20;;;;;;;10.22;48.00;96817.34;5086858;28;20433;-61
2021/04/04 09:50:28;;;;;;;0.20;0.20;;;;;;;10.12;48.45;96815.50;5084695;28;20028;-61
2021/04/04 09:52:55;;;;;;;0.10;0.10;;;;;;;10.03;48.52;96822.69;5081913;28;20070;-59
2021/04/04 09:55:23;;;;;;;0.10;0.10;;;;;;;9.81;49.08;96812.88;5085538;28;20032;-59
2021/04/04 09:57:57;;;;;;;0.20;0.20;;;;;;;9.57;49.40;96810.75;5071305;28;20098;-61
2021/04/04 10:00:32;;;;;;;0.20;0.20;;;;;;;9.42;49.85;96810.75;5073724;28;20481;-62
2021/04/04 10:03:09;;;;;;;0.10;0.10;;;;;;;9.33;49.81;96812.44;5089642;28;20506;-61
2021/04/04 10:05:39;;;;;;;0.32;0.30;;;;;;;9.23;49.98;96810.50;5089556;28;20044;-60
2021/04/04 10:08:09;;;;;;;0.82;0.80;;;;;;;9.32;49.61;96813.50;5089502;28;20032;-61
2021/04/04 10:10:37;;;;;;;0.40;0.40;;;;;;;9.38;49.32;96809.66;5102995;28;20059;-60
2021/04/04 10:13:04;;;;;;;0.40;0.30;;;;;;;9.31;49.63;96806.41;5111916;28;20055;-61
2021/04/04 10:15:45;;;;;;;0.10;0.10;;;;;;;9.21;49.70;96801.75;5094487;28;20057;-60
2021/04/04 10:18:12;;;;;;;0.38;0.38;;;;;;;9.05;49.92;96806.41;5105699;28;20028;-61
2021/04/04 10:20:41;;;;;;;1.00;0.95;;;;;;;8.89;50.14;96806.44;5109717;28;20035;-59
2021/04/04 10:23:08;;;;;;;0.43;0.30;;;;;;;8.77;50.28;96797.66;5110102;28;20032;-62
2021/04/04 10:25:35;;;;;;;0.20;0.20;;;;;;;8.76;50.27;96798.78;5091672;28;20428;-60
2021/04/04 10:28:10;;;;;;;0.20;0.20;;;;;;;8.77;50.18;96798.50;5091923;28;20126;-60
2021/04/04 10:30:39;;;;;;;0.30;0.30;;;;;;;8.76;50.08;96798.78;5108014;28;20438;-62
2021/04/04 10:33:19;;;;;;;0.20;0.20;;;;;;;8.77;50.12;96809.44;5109684;28;20114;-61
2021/04/04 10:35:45;;;;;;;0.40;0.40;;;;;;;8.70;50.16;96814.34;5109679;28;20492;-62
2021/04/04 10:38:18;;;;;;;0.30;0.30;;;;;;;8.62;50.35;96811.34;5107708;28;20032;-60
2021/04/04 10:40:50;;;;;;;0.20;0.20;;;;;;;8.58;50.37;96800.94;5093720;28;20150;-61
2021/04/04 10:43:22;;;;;;;0.10;0.10;;;;;;;8.53;50.45;96802.84;5108395;28;20070;-61
2021/04/04 10:45:55;;;;;;;0.10;0.10;;;;;;;8.49;50.47;96799.81;5110765;28;20027;-61
2021/04/04 10:48:21;;;;;;;0.43;0.35;;;;;;;8.44;50.49;96799.81;5098637;28;20575;-61
2021/04/04 10:50:49;;;;;;;0.15;0.15;;;;;;;8.41;50.44;96801.13;5095099;28;20055;-60
2021/04/04 10:53:17;;;;;;;0.52;0.52;;;;;;;8.45;50.33;96790.53;5073758;28;20032;-60
2021/04/04 10:55:45;;;;;;;0.30;0.30;;;;;;;8.53;50.27;96779.03;5121844;28;20031;-62
2021/04/04 10:58:14;;;;;;;0.20;0.20;;;;;;;8.63;49.93;96786.44;5132081;28;20055;-63
2021/04/04 11:00:42;;;;;;;1.25;0.40;;;;;;;8.64;49.90;96782.59;5113740;28;20400;-60
2021/04/04 11:03:08;;;;;;;0.20;0.20;;;;;;;8.52;50.05;96790.25;5131882;28;20031;-60
2021/04/04 11:05:36;;;;;;;0.20;0.20;;;;;;;8.53;50.12;96786.44;5113856;28;20037;-60
2021/04/04 11:08:03;;;;;;;0.20;0.20;;;;;;;8.59;49.88;96785.34;5113968;28;20396;-60
2021/04/04 11:10:29;;;;;;;0.10;0.10;;;;;;;8.68;49.75;96785.63;5132481;27;20555;-60
2021/04/04 11:12:55;;;;;;;0.40;0.40;;;;;;;8.88;49.34;96788.38;5135993;27;20034;-60
2021/04/04 11:15:22;;;;;;;0.20;0.20;;;;;;;8.92;49.35;96784.00;5136085;27;20062;-60
2021/04/04 11:17:50;;;;;;;0.10;0.10;;;;;;;8.96;49.05;96777.97;5130413;27;20036;-60
2021/04/04 11:20:20;;;;;;;0.20;0.20;;;;;;;9.00;48.95;96779.06;5086581;28;20036;-60
2021/04/04 11:22:46;;;;;;;0.20;0.20;;;;;;;9.08;48.86;96778.50;5094831;28;20028;-60
2021/04/04 11:25:15;;;;;;;0.13;0.13;;;;;;;9.10;48.86;96773.59;5116800;27;20027;-59
2021/04/04 11:27:44;;;;;;;0.20;0.20;;;;;;;8.95;49.24;96771.66;5135833;27;20520;-59
2021/04/04 11:30:32;;;;;;;0.20;0.20;;;;;;;8.69;49.68;96771.66;5117875;27;20039;-60
2021/04/04 11:33:16;;;;;;;0.20;0.20;;;;;;;8.31;50.36;96768.31;5052299;28;20437;-60
2021/04/04 11:36:10;;;;;;;0.20;0.20;;;;;;;8.17;50.74;96781.69;5052578;28;20489;-60
2021/04/04 11:38:40;;;;;;;0.47;0.40;;;;;;;8.10;50.67;96775.63;5052386;28;20051;-59
2021/04/04 11:41:19;;;;;;;0.20;0.20;;;;;;;8.05;50.77;96776.44;5035445;28;20062;-60
2021/04/04 11:43:50;;;;;;;0.30;0.30;;;;;;;8.04;50.64;96777.53;5052075;28;20049;-60
2021/04/04 11:46:43;;;;;;;0.30;0.30;;;;;;;7.95;50.74;96770.94;5052227;28;20182;-60
2021/04/04 11:49:31;;;;;;;0.10;0.10;;;;;;;7.87;50.91;96764.06;5052185;28;20118;-62
2021/04/04 11:51:58;;;;;;;3.72;0.30;;;;;;;7.80;50.86;96759.94;5052527;28;20072;-60
2021/04/04 11:54:45;;;;;;;0.20;0.20;;;;;;;7.69;51.11;96768.09;5051751;28;20641;-61
2021/04/04 11:57:13;;;;;;;0.17;0.17;;;;;;;7.63;51.13;96765.63;5051903;28;20049;-61
2021/04/04 11:59:39;;;;;;;0.50;0.50;;;;;;;7.64;51.07;96762.63;5035179;28;20025;-60
2021/04/04 12:02:05;;;;;;;0.20;0.20;;;;;;;7.73;50.86;96765.69;5051665;28;20052;-59
2021/04/04 12:04:45;;;;;;;0.20;0.20;;;;;;;7.72;50.71;96764.84;5051797;28;20040;-62
2021/04/04 12:07:13;;;;;;;0.20;0.20;;;;;;;7.86;50.42;96762.44;5051571;28;20602;-61
2021/04/04 12:09:42;;;;;;;0.17;0.17;;;;;;;7.91;50.36;96761.63;5061350;27;20035;-62